createdAt,value
2022-11-13T00:00:50.729Z,4.30
2022-11-13T00:03:17.299Z,4.30
2022-11-13T00:05:44.206Z,4.30
2022-11-13T00:08:10.838Z,4.20
2022-11-13T00:10:37.775Z,4.30
2022-11-13T00:13:04.420Z,4.30
2022-11-13T00:15:31.097Z,4.20
2022-11-13T00:18:02.455Z,4.20
2022-11-13T00:20:29.320Z,4.20
2022-11-13T00:22:56.053Z,4.30
2022-11-13T00:25:24.477Z,4.30
2022-11-13T00:27:51.041Z,4.30
2022-11-13T00:30:19.551Z,4.20
2022-11-13T00:32:46.452Z,4.20
2022-11-13T00:35:13.002Z,4.20
2022-11-13T00:37:39.596Z,4.30
2022-11-13T00:42:57.694Z,4.20
2022-11-13T00:45:24.263Z,4.20
2022-11-13T00:47:50.833Z,4.20
2022-11-13T00:50:17.568Z,4.10
2022-11-13T00:52:44.138Z,4.10
2022-11-13T00:55:10.921Z,4.10
2022-11-13T00:57:37.490Z,4.20
2022-11-13T01:00:04.853Z,4.00
2022-11-13T01:02:31.514Z,4.00
2022-11-13T01:04:58.148Z,3.90
2022-11-13T01:07:24.721Z,3.90
2022-11-13T01:09:51.481Z,3.90
2022-11-13T01:12:18.128Z,3.90
2022-11-13T01:14:44.716Z,3.90
2022-11-13T01:17:11.283Z,3.90
2022-11-13T01:19:37.957Z,3.80
2022-11-13T01:22:04.532Z,3.80
2022-11-13T01:24:31.657Z,3.80
2022-11-13T01:26:58.235Z,3.70
2022-11-13T01:29:24.820Z,3.60
2022-11-13T01:31:51.383Z,3.60
2022-11-13T01:34:18.019Z,3.70
2022-11-13T01:36:44.568Z,3.60
2022-11-13T01:39:11.928Z,3.60
2022-11-13T01:41:38.549Z,3.60
2022-11-13T01:44:10.985Z,3.50
2022-11-13T01:46:44.959Z,3.50
2022-11-13T01:49:15.526Z,3.40
2022-11-13T01:51:53.417Z,3.50
2022-11-13T01:54:24.068Z,3.40
2022-11-13T01:56:51.517Z,3.40
2022-11-13T01:59:22.778Z,3.30
2022-11-13T02:01:49.788Z,3.30
2022-11-13T02:04:16.403Z,3.30
2022-11-13T02:06:48.045Z,3.20
2022-11-13T02:09:17.620Z,3.20
2022-11-13T02:11:44.417Z,3.10
2022-11-13T02:14:12.750Z,3.10
2022-11-13T02:16:41.634Z,3.10
2022-11-13T02:19:17.130Z,3.10
2022-11-13T02:21:52.948Z,3.20
2022-11-13T02:24:24.750Z,3.20
2022-11-13T02:26:53.808Z,3.00
2022-11-13T02:29:20.447Z,3.10
2022-11-13T02:31:47.069Z,3.20
2022-11-13T02:34:13.632Z,3.10
2022-11-13T02:36:40.300Z,3.10
2022-11-13T02:39:10.884Z,3.00
2022-11-13T02:41:38.433Z,3.00
2022-11-13T02:44:06.284Z,2.90
2022-11-13T02:46:33.317Z,2.90
2022-11-13T02:48:59.917Z,2.80
2022-11-13T02:51:26.502Z,2.80
2022-11-13T02:53:53.170Z,2.70
2022-11-13T02:56:19.984Z,2.70
2022-11-13T02:58:46.568Z,2.80
2022-11-13T03:01:13.266Z,2.70
2022-11-13T03:06:26.452Z,2.70
2022-11-13T03:08:53.051Z,2.70
2022-11-13T03:11:19.745Z,2.80
2022-11-13T03:13:46.348Z,2.70
2022-11-13T03:16:15.233Z,2.80
2022-11-13T03:18:42.141Z,2.70
2022-11-13T03:21:11.970Z,2.70
2022-11-13T03:23:40.078Z,2.70
2022-11-13T03:26:12.165Z,2.70
2022-11-13T03:28:38.734Z,2.70
2022-11-13T03:31:05.463Z,2.70
2022-11-13T03:33:32.660Z,2.70
2022-11-13T03:35:59.741Z,2.80
2022-11-13T03:38:26.667Z,2.80
2022-11-13T03:40:53.538Z,2.70
2022-11-13T03:43:20.231Z,2.60
2022-11-13T03:45:47.702Z,2.60
2022-11-13T03:48:16.003Z,2.60
2022-11-13T03:50:47.935Z,2.60
2022-11-13T03:53:14.988Z,2.60
2022-11-13T03:55:42.610Z,2.70
2022-11-13T03:58:09.554Z,2.60
2022-11-13T04:00:37.190Z,2.60
2022-11-13T04:03:03.920Z,2.60
2022-11-13T04:05:30.601Z,2.60
2022-11-13T04:07:57.220Z,2.60
2022-11-13T04:10:24.501Z,2.60
2022-11-13T04:12:51.308Z,2.60
2022-11-13T04:15:17.930Z,2.60
2022-11-13T04:17:44.572Z,2.60
2022-11-13T04:20:11.564Z,2.60
2022-11-13T04:22:38.389Z,2.50
2022-11-13T04:25:06.073Z,2.60
2022-11-13T04:27:32.992Z,2.60
2022-11-13T04:29:59.553Z,2.60
2022-11-13T04:32:26.145Z,2.60
2022-11-13T04:34:52.720Z,2.50
2022-11-13T04:37:19.299Z,2.50
2022-11-13T04:39:45.959Z,2.40
2022-11-13T04:42:31.603Z,2.40
2022-11-13T04:44:58.253Z,2.40
2022-11-13T04:47:24.939Z,2.40
2022-11-13T04:49:51.562Z,2.40
2022-11-13T04:52:18.195Z,2.30
2022-11-13T04:54:44.811Z,2.30
2022-11-13T04:57:11.414Z,2.20
2022-11-13T04:59:38.017Z,2.20
2022-11-13T05:02:04.807Z,2.20
2022-11-13T05:04:31.464Z,2.10
2022-11-13T05:06:58.147Z,2.10
2022-11-13T05:09:24.847Z,2.10
2022-11-13T05:11:51.482Z,2.10
2022-11-13T05:14:18.123Z,1.90
2022-11-13T05:16:44.745Z,1.90
2022-11-13T05:19:11.396Z,1.90
2022-11-13T05:21:39.433Z,2.00
2022-11-13T05:24:06.540Z,2.00
2022-11-13T05:26:33.381Z,2.00
2022-11-13T05:29:00.744Z,2.00
2022-11-13T05:31:27.723Z,1.90
2022-11-13T05:33:54.825Z,2.00
2022-11-13T05:36:22.408Z,2.00
2022-11-13T05:38:49.561Z,2.00
2022-11-13T05:41:18.677Z,2.00
2022-11-13T05:43:45.893Z,2.00
2022-11-13T05:46:16.834Z,2.00
2022-11-13T05:48:44.779Z,1.90
2022-11-13T05:51:14.326Z,1.80
2022-11-13T05:53:41.766Z,1.90
2022-11-13T05:56:11.869Z,1.90
2022-11-13T05:58:39.367Z,2.00
2022-11-13T06:01:11.510Z,2.00
2022-11-13T06:03:38.685Z,2.00
2022-11-13T06:06:09.610Z,2.10
2022-11-13T06:08:36.676Z,2.00
2022-11-13T06:11:06.584Z,1.90
2022-11-13T06:13:33.223Z,1.80
2022-11-13T06:16:11.425Z,1.80
2022-11-13T06:18:39.065Z,1.80
2022-11-13T06:21:08.609Z,1.80
2022-11-13T06:23:36.969Z,1.80
2022-11-13T06:26:10.611Z,1.70
2022-11-13T06:28:37.815Z,1.70
2022-11-13T06:31:06.889Z,1.70
2022-11-13T06:33:34.237Z,1.70
2022-11-13T06:36:12.316Z,1.70
2022-11-13T06:38:40.337Z,1.70
2022-11-13T06:41:08.606Z,1.70
2022-11-13T06:43:35.403Z,1.70
2022-11-13T06:46:08.152Z,1.70
2022-11-13T06:48:34.971Z,1.70
2022-11-13T06:51:06.566Z,1.70
2022-11-13T06:53:33.804Z,1.70
2022-11-13T06:56:01.095Z,1.60
2022-11-13T06:58:28.456Z,1.70
2022-11-13T07:00:55.264Z,1.80
2022-11-13T07:03:29.464Z,1.70
2022-11-13T07:05:56.059Z,1.80
2022-11-13T07:08:22.733Z,1.80
2022-11-13T07:10:54.772Z,1.70
2022-11-13T07:13:22.169Z,1.80
2022-11-13T07:15:48.925Z,1.80
2022-11-13T07:18:18.994Z,1.90
2022-11-13T07:20:48.297Z,1.90
2022-11-13T07:23:14.945Z,2.00
2022-11-13T07:25:41.642Z,2.00
2022-11-13T07:28:08.204Z,2.00
2022-11-13T07:30:34.852Z,2.10
2022-11-13T07:33:03.085Z,2.20
2022-11-13T07:35:29.744Z,2.40
2022-11-13T07:37:56.993Z,2.50
2022-11-13T07:40:24.007Z,2.60
2022-11-13T07:43:01.530Z,2.70
2022-11-13T07:45:28.719Z,2.80
2022-11-13T07:48:02.793Z,2.80
2022-11-13T07:50:31.845Z,2.80
2022-11-13T07:53:00.818Z,2.80
2022-11-13T07:55:28.113Z,2.90
2022-11-13T07:57:59.560Z,3.00
2022-11-13T08:00:27.583Z,3.20
2022-11-13T08:02:54.332Z,3.40
2022-11-13T08:05:21.502Z,3.60
2022-11-13T08:07:51.379Z,3.80
2022-11-13T08:10:19.957Z,3.90
2022-11-13T08:12:46.948Z,4.00
2022-11-13T08:15:14.151Z,4.10
2022-11-13T08:17:41.055Z,4.30
2022-11-13T08:20:08.953Z,4.40
2022-11-13T08:22:35.644Z,4.40
2022-11-13T08:25:02.412Z,4.50
2022-11-13T08:27:29.110Z,4.60
2022-11-13T08:29:55.811Z,4.60
2022-11-13T08:32:22.631Z,4.70
2022-11-13T08:34:49.321Z,4.80
2022-11-13T08:37:16.069Z,4.90
2022-11-13T08:39:42.718Z,5.10
2022-11-13T08:42:09.660Z,5.20
2022-11-13T08:44:36.456Z,5.30
2022-11-13T08:47:04.486Z,5.40
2022-11-13T08:49:31.129Z,5.50
2022-11-13T08:51:57.734Z,5.60
2022-11-13T08:54:24.634Z,5.80
2022-11-13T08:56:56.031Z,5.90
2022-11-13T08:59:23.839Z,6.00
2022-11-13T09:01:50.764Z,6.10
2022-11-13T09:04:17.551Z,6.20
2022-11-13T09:06:44.334Z,6.30
2022-11-13T09:09:11.057Z,6.50
2022-11-13T09:11:38.188Z,6.60
2022-11-13T09:14:04.837Z,6.80
2022-11-13T09:16:31.486Z,6.90
2022-11-13T09:18:58.172Z,7.00
2022-11-13T09:21:24.763Z,7.20
2022-11-13T09:23:51.466Z,7.30
2022-11-13T09:26:18.169Z,7.40
2022-11-13T09:28:44.830Z,7.60
2022-11-13T09:31:14.184Z,7.70
2022-11-13T09:33:40.816Z,7.80
2022-11-13T09:36:14.992Z,7.90
2022-11-13T09:38:42.054Z,7.90
2022-11-13T09:41:17.359Z,8.00
2022-11-13T09:43:54.049Z,8.10
2022-11-13T09:46:40.516Z,8.20
2022-11-13T09:49:17.101Z,8.30
2022-11-13T09:51:53.760Z,8.50
2022-11-13T09:54:21.842Z,8.60
2022-11-13T09:57:06.606Z,8.70
2022-11-13T09:59:45.000Z,8.70
2022-11-13T10:02:40.635Z,8.80
2022-11-13T10:05:19.448Z,8.90
2022-11-13T10:08:18.033Z,9.00
2022-11-13T10:10:57.720Z,9.00
2022-11-13T10:13:38.165Z,9.10
2022-11-13T10:16:16.755Z,9.20
2022-11-13T10:18:45.085Z,9.30
2022-11-13T10:21:33.419Z,9.50
2022-11-13T10:24:03.999Z,9.50
2022-11-13T10:26:31.776Z,9.50
2022-11-13T10:29:06.431Z,9.60
2022-11-13T10:31:48.117Z,9.70
2022-11-13T10:34:17.921Z,9.80
2022-11-13T10:36:47.517Z,9.80
2022-11-13T10:39:14.144Z,9.80
2022-11-13T10:41:55.149Z,9.80
2022-11-13T10:44:52.309Z,9.90
2022-11-13T10:47:42.272Z,10.00
2022-11-13T10:50:24.082Z,10.10
2022-11-13T10:52:53.768Z,10.20
2022-11-13T10:55:33.751Z,10.30
2022-11-13T10:58:12.387Z,10.30
2022-11-13T11:00:41.516Z,10.40
2022-11-13T11:03:24.335Z,10.50
2022-11-13T11:06:04.924Z,10.60
2022-11-13T11:08:35.181Z,10.70
2022-11-13T11:11:25.969Z,10.70
2022-11-13T11:13:52.675Z,10.80
2022-11-13T11:16:23.285Z,10.90
2022-11-13T11:19:11.986Z,11.10
2022-11-13T11:21:41.911Z,11.20
2022-11-13T11:24:16.782Z,11.20
2022-11-13T11:26:52.268Z,11.30
2022-11-13T11:29:48.417Z,11.40
2022-11-13T11:32:52.470Z,11.30
2022-11-13T11:35:24.267Z,11.20
2022-11-13T11:38:10.077Z,11.20
2022-11-13T11:40:42.279Z,11.30
2022-11-13T11:43:20.944Z,11.30
2022-11-13T11:45:48.038Z,11.20
2022-11-13T11:48:18.043Z,11.30
2022-11-13T11:50:56.652Z,11.30
2022-11-13T11:53:58.798Z,11.40
2022-11-13T11:56:56.241Z,11.30
2022-11-13T12:00:00.310Z,11.30
2022-11-13T12:02:43.821Z,11.50
2022-11-13T12:05:35.641Z,11.50
2022-11-13T12:08:21.011Z,11.60
2022-11-13T12:10:50.654Z,11.60
2022-11-13T12:13:45.435Z,11.50
2022-11-13T12:16:41.462Z,11.50
2022-11-13T12:19:07.997Z,11.40
2022-11-13T12:21:54.796Z,11.30
2022-11-13T12:24:31.828Z,11.20
2022-11-13T12:27:20.767Z,11.50
2022-11-13T12:30:15.467Z,11.60
2022-11-13T12:33:03.858Z,11.40
2022-11-13T12:35:31.008Z,11.50
2022-11-13T12:38:19.268Z,11.50
2022-11-13T12:40:55.145Z,11.60
2022-11-13T12:43:47.022Z,11.40
2022-11-13T12:46:14.153Z,11.40
2022-11-13T12:48:43.618Z,11.50
2022-11-13T12:51:12.646Z,11.50
2022-11-13T12:53:53.705Z,11.50
2022-11-13T12:56:27.478Z,11.30
2022-11-13T12:59:33.808Z,10.90
2022-11-13T13:02:06.813Z,10.80
2022-11-13T13:04:45.320Z,10.40
2022-11-13T13:07:30.469Z,10.10
2022-11-13T13:10:27.239Z,9.80
2022-11-13T13:12:56.579Z,9.70
2022-11-13T13:15:29.242Z,9.50
2022-11-13T13:18:06.223Z,9.30
2022-11-13T13:20:36.774Z,9.30
2022-11-13T13:23:08.304Z,9.30
2022-11-13T13:25:36.326Z,9.30
2022-11-13T13:28:18.058Z,9.30
2022-11-13T13:31:00.875Z,9.40
2022-11-13T13:34:12.648Z,9.50
2022-11-13T13:37:05.000Z,9.70
2022-11-13T13:39:56.836Z,9.70
2022-11-13T13:42:42.636Z,9.50
2022-11-13T13:45:25.741Z,9.40
2022-11-13T13:47:54.959Z,9.30
2022-11-13T13:50:29.354Z,9.20
2022-11-13T13:52:57.952Z,9.10
2022-11-13T13:55:39.081Z,9.00
2022-11-13T13:58:13.771Z,9.00
2022-11-13T14:00:59.331Z,9.00
2022-11-13T14:03:29.225Z,8.90
2022-11-13T14:06:07.606Z,8.90
2022-11-13T14:08:34.335Z,8.80
2022-11-13T14:11:15.620Z,8.70
2022-11-13T14:13:42.197Z,8.60
2022-11-13T14:16:09.039Z,8.70
2022-11-13T14:18:35.911Z,8.60
2022-11-13T14:21:08.571Z,8.60
2022-11-13T14:23:42.928Z,8.60
2022-11-13T14:26:11.826Z,8.60
2022-11-13T14:29:01.817Z,8.60
2022-11-13T14:31:32.393Z,8.50
2022-11-13T14:34:10.243Z,8.50
2022-11-13T14:36:38.086Z,8.40
2022-11-13T14:39:04.882Z,8.30
2022-11-13T14:41:35.045Z,8.30
2022-11-13T14:44:02.271Z,8.30
2022-11-13T14:46:35.976Z,8.20
2022-11-13T14:49:02.938Z,8.20
2022-11-13T14:51:34.014Z,8.10
2022-11-13T14:54:08.703Z,8.10
2022-11-13T14:56:42.924Z,8.00
2022-11-13T14:59:26.090Z,8.00
2022-11-13T15:01:56.618Z,7.90
2022-11-13T15:04:24.335Z,7.90
2022-11-13T15:06:55.807Z,7.90
2022-11-13T15:09:24.221Z,7.90
2022-11-13T15:11:51.088Z,7.80
2022-11-13T15:14:20.065Z,7.80
2022-11-13T15:16:48.328Z,7.80
2022-11-13T15:19:24.206Z,7.80
2022-11-13T15:22:20.410Z,7.70
2022-11-13T15:24:37.462Z,7.70
2022-11-13T15:27:04.325Z,7.70
2022-11-13T15:29:30.885Z,7.70
2022-11-13T15:31:57.677Z,7.60
2022-11-13T15:34:24.415Z,7.60
2022-11-13T15:36:51.074Z,7.60
2022-11-13T15:39:23.466Z,7.50
2022-11-13T15:41:50.580Z,7.60
2022-11-13T15:44:17.213Z,7.50
2022-11-13T15:46:43.830Z,7.50
2022-11-13T15:49:10.439Z,7.60
2022-11-13T15:51:46.277Z,7.60
2022-11-13T15:54:25.268Z,7.60
2022-11-13T15:56:51.852Z,7.60
2022-11-13T15:59:18.451Z,7.60
2022-11-13T16:01:45.866Z,7.60
2022-11-13T16:04:14.709Z,7.50
2022-11-13T16:06:41.815Z,7.50
2022-11-13T16:09:13.153Z,7.50
2022-11-13T16:11:40.086Z,7.50
2022-11-13T16:14:06.814Z,7.50
2022-11-13T16:16:36.736Z,7.50
2022-11-13T16:19:09.693Z,7.50
2022-11-13T16:21:36.308Z,7.40
2022-11-13T16:24:03.014Z,7.50
2022-11-13T16:26:29.832Z,7.50
2022-11-13T16:31:42.982Z,7.50
2022-11-13T16:34:09.559Z,7.40
2022-11-13T16:36:36.156Z,7.40
2022-11-13T16:39:03.768Z,7.40
2022-11-13T16:41:31.711Z,7.40
2022-11-13T16:43:58.346Z,7.40
2022-11-13T16:46:35.681Z,7.40
2022-11-13T16:49:02.499Z,7.30
2022-11-13T16:51:29.116Z,7.30
2022-11-13T16:53:55.663Z,7.30
2022-11-13T16:56:28.928Z,7.30
2022-11-13T16:58:56.485Z,7.30
2022-11-13T17:01:23.812Z,7.30
2022-11-13T17:03:51.495Z,7.30
2022-11-13T17:06:27.958Z,7.30
2022-11-13T17:08:56.163Z,7.30
2022-11-13T17:11:27.146Z,7.30
2022-11-13T17:13:59.517Z,7.30
2022-11-13T17:16:27.925Z,7.30
2022-11-13T17:18:54.914Z,7.30
2022-11-13T17:21:23.618Z,7.30
2022-11-13T17:24:01.561Z,7.30
2022-11-13T17:26:29.780Z,7.30
2022-11-13T17:28:59.241Z,7.30
2022-11-13T17:31:26.585Z,7.30
2022-11-13T17:33:54.083Z,7.20
2022-11-13T17:36:21.776Z,7.30
2022-11-13T17:38:48.482Z,7.30
2022-11-13T17:41:16.173Z,7.30
2022-11-13T17:43:43.295Z,7.30
2022-11-13T17:46:14.260Z,7.30
2022-11-13T17:48:41.679Z,7.30
2022-11-13T17:51:11.765Z,7.30
2022-11-13T17:53:38.478Z,7.30
2022-11-13T17:56:09.460Z,7.30
2022-11-13T17:58:44.494Z,7.30
2022-11-13T18:01:13.940Z,7.40
2022-11-13T18:03:40.705Z,7.40
2022-11-13T18:06:11.958Z,7.40
2022-11-13T18:08:41.326Z,7.40
2022-11-13T18:11:09.538Z,7.40
2022-11-13T18:13:37.010Z,7.50
2022-11-13T18:16:09.382Z,7.40
2022-11-13T18:18:36.575Z,7.50
2022-11-13T18:21:23.362Z,7.50
2022-11-13T18:23:57.246Z,7.50
2022-11-13T18:26:24.991Z,7.50
2022-11-13T18:28:51.584Z,7.50
2022-11-13T18:31:19.600Z,7.50
2022-11-13T18:33:46.210Z,7.50
2022-11-13T18:36:12.882Z,7.50
2022-11-13T18:38:39.535Z,7.50
2022-11-13T18:41:10.323Z,7.50
2022-11-13T18:43:37.652Z,7.50
2022-11-13T18:46:07.069Z,7.50
2022-11-13T18:48:36.986Z,7.60
2022-11-13T18:51:06.333Z,7.60
2022-11-13T18:53:33.276Z,7.60
2022-11-13T18:56:08.513Z,7.60
2022-11-13T18:58:43.607Z,7.50
2022-11-13T19:01:20.682Z,7.50
2022-11-13T19:04:08.690Z,7.50
2022-11-13T19:06:38.593Z,7.50
2022-11-13T19:09:09.908Z,7.50
2022-11-13T19:11:36.665Z,7.50
2022-11-13T19:14:04.094Z,7.50
2022-11-13T19:16:36.632Z,7.50
2022-11-13T19:19:13.699Z,7.50
2022-11-13T19:21:40.794Z,7.40
2022-11-13T19:24:08.691Z,7.40
2022-11-13T19:26:35.268Z,7.30
2022-11-13T19:29:01.851Z,7.30
2022-11-13T19:31:28.644Z,7.30
2022-11-13T19:33:59.988Z,7.20
2022-11-13T19:36:28.162Z,7.20
2022-11-13T19:38:56.053Z,7.20
2022-11-13T19:41:23.217Z,7.30
2022-11-13T19:43:50.167Z,7.30
2022-11-13T19:46:18.691Z,7.30
2022-11-13T19:48:47.365Z,7.40
2022-11-13T19:51:23.484Z,7.40
2022-11-13T19:53:55.465Z,7.40
2022-11-13T19:56:23.558Z,7.40
2022-11-13T19:58:51.175Z,7.40
2022-11-13T20:01:20.009Z,7.40
2022-11-13T20:03:46.965Z,7.40
2022-11-13T20:06:15.606Z,7.40
2022-11-13T20:08:42.944Z,7.50
2022-11-13T20:11:11.286Z,7.50
2022-11-13T20:13:39.101Z,7.50
2022-11-13T20:16:06.822Z,7.50
2022-11-13T20:18:33.834Z,7.50
2022-11-13T20:21:00.840Z,7.50
2022-11-13T20:23:27.709Z,7.60
2022-11-13T20:26:03.427Z,7.60
2022-11-13T20:28:31.579Z,7.60
2022-11-13T20:31:19.571Z,7.60
2022-11-13T20:33:50.836Z,7.70
2022-11-13T20:36:18.319Z,7.70
2022-11-13T20:38:50.514Z,7.70
2022-11-13T20:41:20.359Z,7.70
2022-11-13T20:43:48.062Z,7.70
2022-11-13T20:46:16.206Z,7.70
2022-11-13T20:48:42.954Z,7.70
2022-11-13T20:51:14.294Z,7.70
2022-11-13T20:53:41.649Z,7.70
2022-11-13T20:56:09.121Z,7.70
2022-11-13T20:58:35.908Z,7.70
2022-11-13T21:01:10.342Z,7.70
2022-11-13T21:03:42.054Z,7.70
2022-11-13T21:06:13.926Z,7.70
2022-11-13T21:08:40.895Z,7.70
2022-11-13T21:11:14.134Z,7.70
2022-11-13T21:13:40.845Z,7.70
2022-11-13T21:16:09.107Z,7.70
2022-11-13T21:18:36.280Z,7.70
2022-11-13T21:21:11.845Z,7.70
2022-11-13T21:23:38.550Z,7.70
2022-11-13T21:26:06.631Z,7.70
2022-11-13T21:28:34.120Z,7.70
2022-11-13T21:31:05.891Z,7.70
2022-11-13T21:33:40.382Z,7.60
2022-11-13T21:36:15.999Z,7.60
2022-11-13T21:38:43.093Z,7.60
2022-11-13T21:41:25.110Z,7.70
2022-11-13T21:43:51.837Z,7.60
2022-11-13T21:46:19.644Z,7.60
2022-11-13T21:48:47.233Z,7.60
2022-11-13T21:51:13.908Z,7.60
2022-11-13T21:53:40.543Z,7.60
2022-11-13T21:56:11.237Z,7.60
2022-11-13T21:58:41.926Z,7.50
2022-11-13T22:01:09.568Z,7.50
2022-11-13T22:03:36.643Z,7.60
2022-11-13T22:06:15.124Z,7.50
2022-11-13T22:08:43.109Z,7.50
2022-11-13T22:11:10.322Z,7.50
2022-11-13T22:13:37.378Z,7.50
2022-11-13T22:16:06.234Z,7.50
2022-11-13T22:18:33.592Z,7.50
2022-11-13T22:21:04.694Z,7.50
2022-11-13T22:23:31.868Z,7.50
2022-11-13T22:26:03.800Z,7.40
2022-11-13T22:28:32.279Z,7.40
2022-11-13T22:30:59.368Z,7.40
2022-11-13T22:33:31.342Z,7.40
2022-11-13T22:36:10.409Z,7.40
2022-11-13T22:38:38.377Z,7.30
2022-11-13T22:41:10.079Z,7.40
2022-11-13T22:43:40.037Z,7.40
2022-11-13T22:46:11.242Z,7.30
2022-11-13T22:48:39.896Z,7.30
2022-11-13T22:51:09.066Z,7.30
2022-11-13T22:53:36.027Z,7.30
2022-11-13T22:56:07.890Z,7.20
2022-11-13T22:58:34.540Z,7.30
2022-11-13T23:01:09.345Z,7.20
2022-11-13T23:03:41.337Z,7.20
2022-11-13T23:06:09.383Z,7.20
2022-11-13T23:08:38.804Z,7.20
2022-11-13T23:11:14.313Z,7.20
2022-11-13T23:13:42.683Z,7.10
2022-11-13T23:16:09.632Z,7.10
2022-11-13T23:18:36.221Z,7.10
2022-11-13T23:21:02.998Z,7.10
2022-11-13T23:23:30.004Z,7.10
2022-11-13T23:25:57.024Z,7.00
2022-11-13T23:28:23.616Z,7.00
2022-11-13T23:30:50.337Z,7.00
2022-11-13T23:33:16.922Z,7.00
2022-11-13T23:35:43.596Z,7.10
2022-11-13T23:38:10.569Z,7.10
2022-11-13T23:40:37.537Z,7.10
2022-11-13T23:43:04.553Z,7.00
2022-11-13T23:45:31.214Z,7.00
2022-11-13T23:47:57.850Z,6.90
2022-11-13T23:50:24.433Z,7.00
2022-11-13T23:52:50.989Z,7.00
2022-11-13T23:55:18.187Z,7.00
2022-11-13T23:57:45.072Z,6.90
